Staunton, IL

4:10 AM CST on January 30, 2015 (GMT -0600)
Woods Mill Drive | Change Station
CLOSE
Current Station
Personal Weather Station
Location: Staunton, IL
Elevation: 630 ft
Nearby Weather Stations

Elev 630 ft 39.02 °N, 89.78 °W | Updated 2 seconds ago

Overcast
Overcast
29.7 °F
Feels Like 24 °F
N
6.0
Wind Variable Wind from NE
Gusts 10.0 mph

Today
High -- | Low -- °F
--% Chance of Precip.
Yesterday
High -- | Low -- °F
Precip. -- in
7:07 AM 5:17 PM
Waxing Gibbous, 81% visible
Pressure 30.46 in
Visibility 10.0 miles
Clouds Overcast 2800 ft
Windchill 24 °F
Dew Point 22 °F
Humidity 72%
Rainfall 0.00 in
Snow Depth Not available.
UV 0 out of 12
Pollen 2.20 out of 12
Air Quality Not available.
Flu Activity Not available.
METAR K3LF 300955Z AUTO 32011G17KT 10SM OVC028 M01/M06 A3046 RMK AO2 T10151062

More Conditions Fewer Conditions

Pressure 30.46 in
Visibility 10.0 miles
Clouds Overcast 2800 ft
Windchill 24 °F
Dew Point 22 °F
Humidity 72%
Rainfall 0.00 in
Snow Depth Not available.
UV 0 out of 12
Pollen 2.20 out of 12
Air Quality Not available.
Flu Activity Not available.
METAR K3LF 300955Z AUTO 32011G17KT 10SM OVC028 M01/M06 A3046 RMK AO2 T10151062

More Conditions Fewer Conditions

10-Day Weather Forecast

Almanac

Astronomy

Jan. 30, 2015 Rise Set
Actual Time
Civil Twilight
Nautical Twilight
Astronomical Twilight
Moon
Length of Visible Light
Length of Day
Tomorrow will be .
, % of the Moon is Illuminated

Today's Extremes

State Highs State Lows

Community

WunderPhotos

Upload Photos

1,791,736 photos uploaded!

WunderBlogs® & News

Nearby

Air Quality

  Air Quality AQ Index Pollutant
Not available.

Snow Depth

Station Depth Elevation

Earthquake Activity

City Distance Mag. Time & Date
Minimum magnitude displayed is 2.5.

Coastal Water Temperatures

Place Temperature

Nearby Weather Stations